RYY weather

Cobb County-Mc Collum Field
Atlanta, Georgia, United States

Public forecast

Using degrees Fahrenheit for public forecast. Weather courtesy of forecast.io.

Current aviation weather report (METAR) for Cobb County-Mc Collum Field

Retrieved 2019/12/10 00:50 UTC (1 hour ago):

KRYY 100050Z 08004KT 10SM BKN030 OVC038 12/10 A3001 RMK AO2 SLP884 T01220100 PNO

Aviation forecast (TAF) for Cobb County-Mc Collum Field

Retrieved 2019-12-10 00:27 UTC (1 hour ago):

TAF KRYY 092320Z 1000/1024 18006KT P6SM SCT010 BKN035 FM100600 20007KT P6SM SCT010 OVC025 FM100900 21008KT 6SM BR OVC007 FM101400 27008KT P6SM OVC008 PROB30 1014/1017 4SM -RA BR FM101700 32010KT P6SM -RA OVC010